• Join FlightAware (Why Join?)
  • Login
  • US Flag 
04:19PM EST


 

Airport Tracker/Info


-or-


 

Live Flight TrackerFlight Track Log ✈ JBU33 ✈ 25-Apr-2013 ✈ KBTV - KJFK

Flight Track Log - Related Links

Times and Time Zones

All times are in EDT time to prevent confusion due to time zone crossing. See the JBU33 flight status page for this flight to view local times or setup timezone preferences in your user account.

Time Position Orientation Groundspeed Altitude Reporting Facility
EDT Latitude Longitude Course Direction KTS MPH feet Rate Location/Type
01:56PM 44.3975 -73.3408 192° South 304 350 9,400  Level Boston Center
01:57PM 44.3158 -73.3656 192° South 304 350 11,200 2,220 Climbing Boston Center
01:58PM 44.2261 -73.3903 191° South 317 365 13,900 2,700 Climbing Boston Center
01:59PM 44.1364 -73.4150 191° South 323 372 16,700 2,700 Climbing Boston Center
02:00PM 44.0528 -73.4394 192° South 339 390 19,300 2,340 Climbing Boston Center
02:01PM 43.9589 -73.4669 192° South 339 390 21,400 1,980 Climbing Boston Center
02:02PM 43.8669 -73.4942 192° South 339 390 23,300 1,800 Climbing Boston Center
02:03PM 43.7708 -73.5211 191° South 347 399 25,100 1,740 Climbing Boston Center
02:04PM 43.6747 -73.5481 191° South 357 411 26,800 1,440 Climbing Boston Center
02:05PM 43.5764 -73.5722 190° South 357 411 28,000 600 Climbing Boston Center
02:06PM 43.4783 -73.6017 192° South 357 411 28,000  Level Boston Center
02:07PM 43.3800 -73.6283 191° South 357 411 28,000  Level Boston Center
02:08PM 43.2817 -73.6550 191° South 357 411 28,000  Level Boston Center
02:09PM 43.1836 -73.6817 191° South 357 411 28,000  Level Boston Center
02:10PM 43.0728 -73.7133 192° South 362 417 28,000  Level Boston Center
02:11PM 42.9744 -73.7425 192° South 362 417 28,000  Level Boston Center
02:12PM 42.8742 -73.7717 192° South 367 422 28,000  Level Boston Center
02:13PM 42.7758 -73.7978 191° South 367 422 28,000  Level Boston Center
02:14PM 42.6736 -73.8097 185° South 372 428 28,000  Level Boston Center
02:15PM 42.5900 -73.8106 180° South 345 397 28,000  Level Boston Center
02:16PM 42.5025 -73.8117 181° South 325 374 28,000  Level Boston Center
02:17PM 42.4150 -73.8153 193° South 320 368 28,000  Level Boston Center
02:18PM 42.3358 -73.8164 181° South 305 351 28,000  Level Boston Center
02:19PM 42.2567 -73.8172 180° South 294 338 28,000  Level Boston Center
02:20PM 42.1753 -73.8183 181° South 289 333 28,000  Level Boston Center
02:21PM 42.0919 -73.8194 181° South 289 333 28,000  Level Boston Center
02:22PM 42.0086 -73.8231 182° South 295 339 28,000 -120 Level Boston Center
02:23PM 41.9250 -73.8214 179° South 295 339 27,800 -600 Descending Boston Center
02:24PM 41.8439 -73.8222 180° South 300 345 26,800 -1,020 Descending Boston Center
02:25PM 41.7731 -73.8208 179° South 289 333 25,800 -1,020 Descending Boston Center
02:26PM 41.6958 -73.8219 181° South 289 333 24,800 -1,020 Descending Boston Center
02:27PM 41.6308 -73.8483 197° South 284 327 23,800 -1,020 Descending Boston Center
02:28PM 41.6028 -73.9336 246° West 233 268 22,800 -1,020 Descending Boston Center
02:29PM 41.5828 -74.0247 254° West 238 274 21,800 -900 Descending Boston Center
02:30PM 41.6064 -74.1197 288° West 245 282 21,000 -420 Descending Boston Center
02:31PM 41.6894 -74.1442 348° North 232 267 21,000  Level Boston Center
02:32PM 41.7244 -74.0283 68° East 186 214 21,000  Level Boston Center
02:33PM 41.6928 -73.9081 109° East 211 243 21,000  Level Boston Center
02:34PM 41.6586 -73.7933 112° Southeast 291 335 21,000  Level Boston Center
02:35PM 41.5883 -73.7611 161° South 245 282 21,000  Level Boston Center
02:35PM 41.5647 -73.7794 210° Southwest 438 504 21,000  Level New York Center
02:37PM 41.5675 -73.9217 272° West 163 188 21,000  Level Boston Center
02:38PM 41.5953 -74.0139 292° West 212 244 21,000  Level Boston Center
02:39PM 41.6275 -74.1036 296° West 249 287 21,000 -480 Level Boston Center
02:40PM 41.7131 -74.1003 North 244 281 20,100 -540 Descending Boston Center
02:41PM 41.8114 -74.0694 13° North 273 314 20,000 -60 Descending Boston Center
02:42PM 41.8756 -73.9189 60° Northeast 273 314 20,000  Level New York Center
02:43PM 41.8039 -73.8708 153° Southeast 198 228 20,000  Level New York Center
02:44PM 41.7414 -73.7903 136° Southeast 246 283 20,000  Level New York Center
02:45PM 41.6742 -73.7317 147° Southeast 290 334 20,000  Level New York Center
02:46PM 41.6036 -73.8061 218° Southwest 243 280 20,000  Level New York Center
02:47PM 41.5392 -73.8808 221° Southwest 262 302 20,000  Level New York Center
02:48PM 41.4725 -73.9636 223° Southwest 301 346 20,000  Level New York Center
02:49PM 41.4036 -74.0431 221° Southwest 314 361 20,000  Level New York Center
02:50PM 41.3286 -74.1169 217° Southwest 328 377 20,000 -60 Level New York Center
02:51PM 41.2583 -74.1767 213° Southwest 339 390 19,900 -420 Descending New York Center
02:52PM 41.1903 -74.2258 209° Southwest 323 372 19,200 -480 Descending New York Center
02:53PM 41.1103 -74.2492 192° South 259 298 19,000 -120 Descending New York Center
02:54PM 41.0500 -74.2000 148° Southeast 319 367 19,000  Level New York TRACON
02:55PM 40.9667 -74.1667 163° South 317 365 19,000 -300 Level New York TRACON
02:56PM 40.8833 -74.1167 156° South 315 362 18,400 -660 Descending New York TRACON
02:57PM 40.8000 -74.0667 156° South 314 361 17,700 -1,260 Descending New York TRACON
02:58PM 40.7167 -74.0167 156° South 305 351 16,100 -1,740 Descending New York TRACON
02:59PM 40.6500 -73.9833 159° South 303 349 14,300 -1,860 Descending New York TRACON
03:00PM 40.5667 -73.9333 155° Southeast 309 356 12,400 -1,800 Descending New York TRACON
03:01PM 40.5000 -73.9000 159° South 298 343 10,700 -1,560 Descending New York TRACON
03:02PM 40.4167 -73.8667 163° South 289 333 9,300 -1,620 Descending New York TRACON
03:03PM 40.3667 -73.8000 135° Southeast 298 343 7,500 -1,920 Descending New York TRACON
03:04PM 40.3167 -73.6833 119° Southeast 288 331 5,300 -1,860 Descending New York TRACON
03:05PM 40.3000 -73.5833 102° East 284 327 3,600 -1,200 Descending New York TRACON
03:06PM 40.3500 -73.5333 37° Northeast 235 270 3,000 -300 Descending New York TRACON
03:07PM 40.4000 -73.5000 27° Northeast 183 211 3,000  Level New York TRACON
03:08PM 40.4333 -73.4667 37° Northeast 179 206 3,000  Level New York TRACON
03:09PM 40.4667 -73.4333 37° Northeast 181 208 3,000  Level New York TRACON
03:11PM 40.5537 -73.6067 320° Northwest  Level Estimated
03:11PM 40.5333 -73.5333 320° Northwest 176 203 3,000  Level New York TRACON
03:12PM 40.5667 -73.5833 311° West 174 200 3,000 -420 Level New York TRACON
03:13PM 40.5833 -73.6333 294° West 175 201 2,200 -900 Descending New York TRACON
03:14PM 40.6167 -73.7000 303° West 174 200 1,200 -900 Descending New York TRACON
03:15PM 40.6333 -73.7333 303° West 135 155 500 -720 Descending New York TRACON